Marukimaru No8 — JH3492 — position and weather

sailwx.info

Track history (hours):
 
Tides and Currents Weather Stations Pressure Air Temp Water Temp Dewpoint Dewpoint Depression Visibility Wind Speed Wind Dir Waves Ship Positions

Marukimaru No8

Last reported at 2018-Feb-21 19:00 UTC. Time now 2018-Feb-21 19:13 UTC.
Position N 34°38' E 135°21'.

Length 84 m; draft 5.6 m.

Type: Cargo ship. MMSI: 431200607.

Date/timePositionNaut miles runAvg speedWind from/ knotsBaromVisibWave heightAir tempDewpointWater temp
2018-Feb-21 19:00N 34°38' E 135°21'0 0.1
2018-Feb-21 18:30N 34°38' E 135°21'0 0.1
2018-Feb-21 18:00N 34°38' E 135°21'0 0.0
2018-Feb-21 17:30N 34°38' E 135°21'0 0.1
2018-Feb-21 17:00N 34°38' E 135°21'0 0.0
2018-Feb-21 16:30N 34°38' E 135°21'3 5.4
2018-Feb-21 16:01N 34°37' E 135°18'510.6
2018-Feb-21 15:31N 34°35' E 135°12'611.2
2018-Feb-21 15:01N 34°35' E 135°05'4 8.7
2018-Feb-21 14:31N 34°37' E 135°01'4 8.8
2018-Feb-21 14:00N 34°36' E 134°55'5 9.5
2018-Feb-21 13:31N 34°34' E 134°50'510.5
2018-Feb-21 13:01N 34°32' E 134°44'510.8
2018-Feb-21 12:30N 34°30' E 134°38'510.8
2018-Feb-21 12:01N 34°28' E 134°32'510.9
2018-Feb-21 11:31N 34°26' E 134°26'611.0
2018-Feb-21 11:00N 34°24' E 134°20'611.4
2018-Feb-21 10:28N 34°24' E 134°12'7211.2
2018-Feb-21 04:02N 34°06' E 132°48'512.5
2018-Feb-21 03:39N 34°04' E 132°43'212.2
2018-Feb-21 03:30N 34°03' E 132°41'1012.2
2018-Feb-21 02:43N 33°57' E 132°32'312.0
2018-Feb-21 02:27N 33°55' E 132°29'812.5
2018-Feb-21 01:50N 33°50' E 132°22'512.0
2018-Feb-21 01:28N 33°50' E 132°17'711.7
2018-Feb-21 00:52N 33°48' E 132°09'411.6
2018-Feb-21 00:30N 33°46' E 132°04'711.1
2018-Feb-20 23:53N 33°45' E 131°56'411.0
2018-Feb-20 23:30N 33°46' E 131°51'511.0
2018-Feb-20 23:00N 33°46' E 131°45'510.8
2018-Feb-20 22:31N 33°46' E 131°38'611.0
2018-Feb-20 22:00N 33°47' E 131°32'611.1
2018-Feb-20 21:30N 33°48' E 131°25'611.3
2018-Feb-20 21:00N 33°49' E 131°18'611.4
2018-Feb-20 20:31N 33°49' E 131°12'611.7
2018-Feb-20 20:00N 33°48' E 131°04'4 7.8
2018-Feb-20 19:30N 33°48' E 130°60'0 0.0
2018-Feb-20 19:00N 33°48' E 130°60'0 0.0
2018-Feb-20 18:27N 33°48' E 130°60'0 0.0
2018-Feb-20 18:00N 33°48' E 130°60'0 0.0
2018-Feb-20 17:30N 33°48' E 130°60'1 1.8
2018-Feb-20 17:00N 33°48' E 131°01'2 3.6
2018-Feb-20 16:28N 33°48' E 131°03'0 0.0
2018-Feb-20 15:58N 33°48' E 131°03'0 0.2
2018-Feb-20 15:28N 33°48' E 131°03'0 0.1
2018-Feb-20 14:58N 33°48' E 131°03'0 0.0
2018-Feb-20 14:28N 33°48' E 131°03'0 0.0
2018-Feb-20 13:58N 33°48' E 131°03'0 0.1
2018-Feb-20 13:28N 33°48' E 131°03'0 0.1
2018-Feb-20 12:58N 33°48' E 131°03'0 0.1
2018-Feb-20 12:29N 33°48' E 131°03'4 9.0
2018-Feb-20 12:00N 33°52' E 131°03'511.0
2018-Feb-20 11:30N 33°58' E 131°02'0 0.8
2018-Feb-20 11:00N 33°58' E 131°01'0 0.0
2018-Feb-20 10:29N 33°58' E 131°01'0 0.0
2018-Feb-20 09:59N 33°58' E 131°01'0 0.0
2018-Feb-20 09:29N 33°58' E 131°01'0 0.0
2018-Feb-20 08:59N 33°58' E 131°01'0 0.0
2018-Feb-20 08:29N 33°58' E 131°01'0 0.0
2018-Feb-20 07:59N 33°58' E 131°01'0 0.0
2018-Feb-20 07:29N 33°58' E 131°01'0 0.0
2018-Feb-20 06:59N 33°58' E 131°01'0 0.0
2018-Feb-20 06:29N 33°58' E 131°01'0 0.0
2018-Feb-20 05:59N 33°58' E 131°01'0 0.0
2018-Feb-20 05:30N 33°58' E 131°01'0 0.0
2018-Feb-20 05:00N 33°58' E 131°01'0 0.0
2018-Feb-20 04:30N 33°58' E 131°01'0 0.0
2018-Feb-20 04:00N 33°58' E 131°01'0 0.0
2018-Feb-20 03:30N 33°58' E 131°01'0 0.0
2018-Feb-20 03:00N 33°58' E 131°01'0 0.0
2018-Feb-20 02:30N 33°58' E 131°01'0 0.0
2018-Feb-20 02:00N 33°58' E 131°01'1 3.0
2018-Feb-20 01:30N 33°57' E 131°03'510.8
2018-Feb-20 01:00N 33°53' E 131°08'611.2
2018-Feb-20 00:30N 33°51' E 131°14'611.4
2018-Feb-20 00:00N 33°50' E 131°21'611.3
2018-Feb-19 23:30N 33°50' E 131°27'611.3
2018-Feb-19 23:00N 33°49' E 131°34'611.4
2018-Feb-19 22:29N 33°48' E 131°41'611.2
2018-Feb-19 21:59N 33°47' E 131°48'510.8
2018-Feb-19 21:29N 33°46' E 131°54'510.6
2018-Feb-19 21:00N 33°46' E 132°00'611.3
2018-Feb-19 20:27N 33°48' E 132°08'611.3
2018-Feb-19 19:57N 33°50' E 132°14'611.4
2018-Feb-19 19:25N 33°50' E 132°21'611.5
2018-Feb-19 18:55N 33°53' E 132°27'512.4
2018-Feb-19 18:29N 33°57' E 132°32'612.1
2018-Feb-19 18:00N 34°01' E 132°37'611.3
2018-Feb-19 17:28N 34°04' E 132°43'78 9.2
2018-Feb-19 09:02N 34°24' E 134°14'110.2
2018-Feb-19 08:57N 34°24' E 134°15'510.0
2018-Feb-19 08:30N 34°25' E 134°20'510.3
2018-Feb-19 08:00N 34°27' E 134°26'510.4
2018-Feb-19 07:30N 34°29' E 134°32'510.3
2018-Feb-19 07:00N 34°31' E 134°38'510.1
2018-Feb-19 06:30N 34°33' E 134°43'510.2
2018-Feb-19 06:00N 34°34' E 134°49'5 9.6
2018-Feb-19 05:30N 34°36' E 134°55'5 9.7
2018-Feb-19 05:00N 34°38' E 135°00'5 9.8
2018-Feb-19 04:30N 34°36' E 135°06'510.8
2018-Feb-19 04:00N 34°36' E 135°12'510.7
2018-Feb-19 03:30N 34°37' E 135°19'510.2
2018-Feb-19 03:00N 34°39' E 135°24'3 5.3
2018-Feb-19 02:30N 34°40' E 135°27'0 0.1
2018-Feb-19 01:59N 34°40' E 135°27'0 0.0
2018-Feb-19 01:29N 34°40' E 135°27'0 0.0
2018-Feb-19 00:59N 34°40' E 135°27'0 0.0
2018-Feb-19 00:29N 34°40' E 135°27'0 0.0
2018-Feb-18 23:59N 34°40' E 135°27'0 0.0
2018-Feb-18 23:29N 34°40' E 135°27'0 0.0
2018-Feb-18 22:59N 34°40' E 135°27'0 0.0
2018-Feb-18 22:26N 34°40' E 135°27'0 0.0
2018-Feb-18 21:59N 34°40' E 135°27'0 0.0
2018-Feb-18 21:29N 34°40' E 135°27'0 0.0
2018-Feb-18 20:56N 34°40' E 135°27'0 0.0
2018-Feb-18 20:29N 34°40' E 135°27'0 0.0
2018-Feb-18 19:59N 34°40' E 135°27'0 0.0
2018-Feb-18 19:29N 34°40' E 135°27'0 0.0
2018-Feb-18 18:59N 34°40' E 135°27'0 0.0
2018-Feb-18 18:29N 34°40' E 135°27'0 0.0
2018-Feb-18 17:59N 34°40' E 135°27'0 0.0
2018-Feb-18 17:29N 34°40' E 135°27'0 0.0
2018-Feb-18 16:56N 34°40' E 135°27'0 0.0
2018-Feb-18 16:29N 34°40' E 135°27'0 0.0
2018-Feb-18 15:59N 34°40' E 135°27'0 0.0
2018-Feb-18 15:29N 34°40' E 135°27'0 0.0
2018-Feb-18 14:59N 34°40' E 135°27'0 0.0
2018-Feb-18 14:29N 34°40' E 135°27'0 0.0
2018-Feb-18 13:59N 34°40' E 135°27'0 0.0
2018-Feb-18 13:29N 34°40' E 135°27'0 0.0
2018-Feb-18 12:59N 34°40' E 135°27'0 0.0
2018-Feb-18 12:29N 34°40' E 135°27'0 0.0
2018-Feb-18 11:59N 34°40' E 135°27'0 0.0
2018-Feb-18 11:29N 34°40' E 135°27'0 0.0
2018-Feb-18 10:59N 34°40' E 135°27'0 0.0
2018-Feb-18 10:29N 34°40' E 135°27'0 0.0
2018-Feb-18 09:59N 34°40' E 135°27'0 0.0
2018-Feb-18 09:29N 34°40' E 135°27'0 0.0
2018-Feb-18 08:59N 34°40' E 135°27'1 2.7
2018-Feb-18 08:30N 34°39' E 135°26'510.7
2018-Feb-18 08:00N 34°36' E 135°21'611.8
2018-Feb-18 07:30N 34°35' E 135°13'612.1
2018-Feb-18 07:00N 34°35' E 135°06'714.0
2018-Feb-18 06:30N 34°37' E 134°58'713.8
2018-Feb-18 06:00N 34°34' E 134°51'611.9
2018-Feb-18 05:30N 34°31' E 134°44'611.9
2018-Feb-18 05:00N 34°29' E 134°37'611.5
2018-Feb-18 04:30N 34°26' E 134°31'611.1
2018-Feb-18 04:00N 34°25' E 134°25'  
2018-Feb-15 19:38N 34°05' E 132°47'3 9.5
2018-Feb-15 19:17N 34°04' E 132°44'3 9.7
2018-Feb-15 19:00N 34°02' E 132°41'5 9.5
2018-Feb-15 18:30N 34°00' E 132°36'4 7.7
2018-Feb-15 17:56N 33°57' E 132°33'3 8.0
2018-Feb-15 17:30N 33°55' E 132°29'5 8.7
2018-Feb-15 16:55N 33°51' E 132°25'6 8.6
2018-Feb-15 16:16N 33°50' E 132°18'4 9.6
2018-Feb-15 15:53N 33°50' E 132°14'4 9.2
2018-Feb-15 15:29N 33°48' E 132°10'5 9.6
2018-Feb-15 15:00N 33°46' E 132°05'610.3
2018-Feb-15 14:27N 33°45' E 131°58'510.8
2018-Feb-15 14:00N 33°46' E 131°52'611.0
2018-Feb-15 13:30N 33°47' E 131°46'511.0
2018-Feb-15 13:00N 33°48' E 131°39'510.7
2018-Feb-15 12:30N 33°49' E 131°33'510.6
2018-Feb-15 12:00N 33°50' E 131°27'510.4
2018-Feb-15 11:30N 33°49' E 131°20'510.2
2018-Feb-15 11:00N 33°49' E 131°14'510.1
2018-Feb-15 10:30N 33°48' E 131°08'5 9.8
2018-Feb-15 10:01N 33°48' E 131°02'2 4.0
2018-Feb-15 09:28N 33°48' E 130°60'0 0.0
2018-Feb-15 08:58N 33°48' E 130°60'0 0.0
2018-Feb-15 08:28N 33°48' E 130°60'0 0.0
2018-Feb-15 07:55N 33°48' E 130°60'0 0.0
2018-Feb-15 07:28N 33°48' E 130°60'0 0.0
2018-Feb-15 07:01N 33°48' E 130°60'2 4.8
2018-Feb-15 06:31N 33°48' E 131°03'0 0.6
2018-Feb-15 05:59N 33°48' E 131°03'0 0.0
2018-Feb-15 05:29N 33°48' E 131°03'0 0.0
2018-Feb-15 04:59N 33°48' E 131°03'0 0.0
2018-Feb-15 04:29N 33°48' E 131°03'0 0.0
2018-Feb-15 03:59N 33°48' E 131°03'0 0.0
2018-Feb-15 03:29N 33°48' E 131°03'0 0.0
2018-Feb-15 02:58N 33°48' E 131°03'0 0.1
2018-Feb-15 02:28N 33°48' E 131°03'0 0.1
2018-Feb-15 01:55N 33°48' E 131°03'0 0.1
2018-Feb-15 01:28N 33°48' E 131°03'0 0.0
2018-Feb-15 00:58N 33°48' E 131°03'0 0.0
2018-Feb-15 00:28N 33°48' E 131°03'0 0.1
2018-Feb-14 23:58N 33°48' E 131°03'0 0.0
2018-Feb-14 23:28N 33°48' E 131°03'0 0.0
2018-Feb-14 22:58N 33°48' E 131°03'0 0.0
2018-Feb-14 22:28N 33°48' E 131°03'0 0.1
2018-Feb-14 21:58N 33°48' E 131°03'0 0.0
2018-Feb-14 21:28N 33°48' E 131°03'0 0.1
2018-Feb-14 20:58N 33°48' E 131°03'0 0.0
2018-Feb-14 20:28N 33°48' E 131°03'0 0.0
2018-Feb-14 19:58N 33°48' E 131°03'0 0.0
2018-Feb-14 19:28N 33°48' E 131°03'0 0.0
2018-Feb-14 18:58N 33°48' E 131°03'0 0.1
2018-Feb-14 18:28N 33°48' E 131°03'0 0.0
2018-Feb-14 17:58N 33°48' E 131°03'0 0.0
2018-Feb-14 17:28N 33°48' E 131°03'0 0.0
2018-Feb-14 16:58N 33°48' E 131°03'3 5.7
2018-Feb-14 16:30N 33°51' E 131°04'611.7
2018-Feb-14 16:00N 33°56' E 131°02'2 3.2
2018-Feb-14 15:30N 33°58' E 131°01'0 0.0
2018-Feb-14 15:00N 33°58' E 131°01'0 0.0
2018-Feb-14 14:30N 33°58' E 131°01'0 0.0
2018-Feb-14 14:00N 33°58' E 131°01'0 0.0
2018-Feb-14 13:30N 33°58' E 131°01'0 0.0
2018-Feb-14 13:00N 33°58' E 131°01'0 0.0
2018-Feb-14 12:30N 33°58' E 131°01'0 0.0
2018-Feb-14 12:00N 33°58' E 131°01'0 0.0
2018-Feb-14 11:24N 33°58' E 131°01'0 0.0
2018-Feb-14 11:00N 33°58' E 131°01'0 0.0
2018-Feb-14 10:30N 33°58' E 131°01'0 0.4
2018-Feb-14 10:00N 33°58' E 131°01'4 7.8
2018-Feb-14 09:30N 33°55' E 131°05'510.6
2018-Feb-14 09:00N 33°52' E 131°10'510.9
2018-Feb-14 08:30N 33°51' E 131°17'611.4
2018-Feb-14 08:00N 33°50' E 131°23'611.2
2018-Feb-14 07:30N 33°49' E 131°30'611.0
2018-Feb-14 07:00N 33°49' E 131°37'510.8
2018-Feb-14 06:30N 33°48' E 131°43'510.7
2018-Feb-14 06:00N 33°47' E 131°49'510.4
2018-Feb-14 05:29N 33°46' E 131°56'510.6
2018-Feb-14 05:00N 33°46' E 132°02'711.1
2018-Feb-14 04:20N 33°49' E 132°10'411.0
2018-Feb-14 03:58N 33°50' E 132°14'511.1
2018-Feb-14 03:30N 33°50' E 132°21'611.1
2018-Feb-14 02:59N 33°53' E 132°27'611.5
2018-Feb-14 02:30N 33°57' E 132°32'610.8
2018-Feb-14 02:00N 34°00' E 132°37'510.7
2018-Feb-14 01:30N 34°03' E 132°42'71 9.3
2018-Feb-13 17:51N 34°27' E 134°04'15 9.3
2018-Feb-13 16:14N 34°25' E 134°22'310.3
2018-Feb-13 15:59N 34°27' E 134°24'510.5
2018-Feb-13 15:30N 34°28' E 134°30'510.3
2018-Feb-13 15:01N 34°30' E 134°36'5 9.8
2018-Feb-13 14:30N 34°32' E 134°41'5 9.7
2018-Feb-13 14:01N 34°34' E 134°47'5 9.9
2018-Feb-13 13:30N 34°35' E 134°53'510.1
2018-Feb-13 13:00N 34°37' E 134°58'5 9.8
2018-Feb-13 12:30N 34°36' E 135°04'510.1
2018-Feb-13 12:00N 34°36' E 135°10'510.5
2018-Feb-13 11:30N 34°36' E 135°17'510.3
2018-Feb-13 11:01N 34°38' E 135°22'5 8.5
2018-Feb-13 10:29N 34°40' E 135°27'0 0.2
2018-Feb-13 09:59N 34°40' E 135°27'0 0.0
2018-Feb-13 09:29N 34°40' E 135°27'0 0.0
2018-Feb-13 08:59N 34°40' E 135°27'0 0.0
2018-Feb-13 08:29N 34°40' E 135°27'0 0.1
2018-Feb-13 07:59N 34°40' E 135°27'0 0.2
2018-Feb-13 07:26N 34°40' E 135°27'0 0.0
2018-Feb-13 06:56N 34°40' E 135°27'0 0.0
2018-Feb-13 06:29N 34°40' E 135°27'0 0.0
2018-Feb-13 05:58N 34°40' E 135°27'0 0.0
2018-Feb-13 05:30N 34°40' E 135°27'2 4.8
2018-Feb-13 05:00N 34°39' E 135°25'611.4
2018-Feb-13 04:30N 34°36' E 135°19'612.0
2018-Feb-13 04:00N 34°35' E 135°12'612.1
2018-Feb-13 03:30N 34°35' E 135°04'612.8
2018-Feb-13 03:00N 34°36' E 134°57'612.5
2018-Feb-13 02:30N 34°34' E 134°50'611.4
2018-Feb-13 02:00N 34°32' E 134°43'612.0
2018-Feb-13 01:30N 34°32' E 134°36'612.0
2018-Feb-13 01:00N 34°32' E 134°29'5 6.9
2018-Feb-13 00:14N 34°31' E 134°22'0 0.1
2018-Feb-12 23:59N 34°31' E 134°22'0 0.0
2018-Feb-12 23:23N 34°31' E 134°22'0 0.1
2018-Feb-12 22:53N 34°31' E 134°22'0 0.2
2018-Feb-12 22:29N 34°31' E 134°22'0 0.0
2018-Feb-12 21:53N 34°31' E 134°22'0 0.2
2018-Feb-12 21:23N 34°31' E 134°22'0 0.0
2018-Feb-12 20:08N 34°31' E 134°22'0 0.4
2018-Feb-12 19:59N 34°31' E 134°22'0 0.1
2018-Feb-12 19:17N 34°31' E 134°22'0 0.0
2018-Feb-12 18:40N 34°31' E 134°22'0 0.0
2018-Feb-12 17:07N 34°31' E 134°22'0 0.0
2018-Feb-12 16:58N 34°31' E 134°22'0 0.0
2018-Feb-12 16:28N 34°31' E 134°22'0 0.1
2018-Feb-12 15:58N 34°31' E 134°22'0 0.0
2018-Feb-12 14:58N 34°31' E 134°22'0 0.0
2018-Feb-12 13:52N 34°31' E 134°22'0 0.0
2018-Feb-12 13:10N 34°31' E 134°22'0 0.1
2018-Feb-12 12:52N 34°31' E 134°22'0 0.0
2018-Feb-12 12:28N 34°31' E 134°22'0 0.0
2018-Feb-12 11:58N 34°31' E 134°22'0 0.1
2018-Feb-12 11:16N 34°31' E 134°22'0 0.1
2018-Feb-12 10:52N 34°31' E 134°22'0 0.0
2018-Feb-12 10:22N 34°31' E 134°22'0 0.1
2018-Feb-12 09:58N 34°31' E 134°22'0 0.1
2018-Feb-12 09:16N 34°31' E 134°22'0 0.1
2018-Feb-12 08:43N 34°31' E 134°22'0 0.0
2018-Feb-12 07:52N 34°31' E 134°22'0 0.0
2018-Feb-12 07:13N 34°31' E 134°22'0 0.0
2018-Feb-12 06:55N 34°31' E 134°22'0 0.0
2018-Feb-12 05:28N 34°31' E 134°22'0 0.1
2018-Feb-12 04:49N 34°31' E 134°22'0 0.0
2018-Feb-12 04:28N 34°31' E 134°22'0 0.0
2018-Feb-12 03:58N 34°31' E 134°22'0 0.0
2018-Feb-12 03:07N 34°31' E 134°22'0 0.3
2018-Feb-12 02:58N 34°31' E 134°22'0 0.1
2018-Feb-12 02:25N 34°31' E 134°22'0 0.1
2018-Feb-12 01:52N 34°31' E 134°22'0 0.1
2018-Feb-12 01:25N 34°31' E 134°22'0 0.2
2018-Feb-12 00:58N 34°31' E 134°22'0 0.0
2018-Feb-12 00:04N 34°31' E 134°22'0 0.2
2018-Feb-11 23:52N 34°31' E 134°22'0 0.1
2018-Feb-11 23:22N 34°31' E 134°22'0 0.0
2018-Feb-11 22:58N 34°31' E 134°22'0 0.0
2018-Feb-11 22:13N 34°31' E 134°22'0 0.1
2018-Feb-11 21:55N 34°31' E 134°22'0 0.0
2018-Feb-11 21:25N 34°31' E 134°22'0 0.1
2018-Feb-11 20:58N 34°31' E 134°22'0 0.0
2018-Feb-11 20:28N 34°31' E 134°22'0 0.1
2018-Feb-11 19:58N 34°31' E 134°22'0 0.1
2018-Feb-11 19:28N 34°31' E 134°22'  
Track history (hours):
 
Tides and Currents Weather Stations Pressure Air Temp Water Temp Dewpoint Dewpoint Depression Visibility Wind Speed Wind Dir Waves Ship Positions

Marukimaru No8

Last reported at 2018-Feb-21 19:00 UTC. Time now 2018-Feb-21 19:13 UTC.
Position N 34°38' E 135°21'.

Length 84 m; draft 5.6 m.

Type: Cargo ship. MMSI: 431200607.

Date/timePositionNaut miles runAvg speedWind from/ knotsBaromVisibWave heightAir tempDewpointWater temp
2018-Feb-21 19:00N 34°38' E 135°21'0 0.1
2018-Feb-21 18:30N 34°38' E 135°21'0 0.1
2018-Feb-21 18:00N 34°38' E 135°21'0 0.0
2018-Feb-21 17:30N 34°38' E 135°21'0 0.1
2018-Feb-21 17:00N 34°38' E 135°21'0 0.0
2018-Feb-21 16:30N 34°38' E 135°21'3 5.4
2018-Feb-21 16:01N 34°37' E 135°18'510.6
2018-Feb-21 15:31N 34°35' E 135°12'611.2
2018-Feb-21 15:01N 34°35' E 135°05'4 8.7
2018-Feb-21 14:31N 34°37' E 135°01'4 8.8
2018-Feb-21 14:00N 34°36' E 134°55'5 9.5
2018-Feb-21 13:31N 34°34' E 134°50'510.5
2018-Feb-21 13:01N 34°32' E 134°44'510.8
2018-Feb-21 12:30N 34°30' E 134°38'510.8
2018-Feb-21 12:01N 34°28' E 134°32'510.9
2018-Feb-21 11:31N 34°26' E 134°26'611.0
2018-Feb-21 11:00N 34°24' E 134°20'611.4
2018-Feb-21 10:28N 34°24' E 134°12'7211.2
2018-Feb-21 04:02N 34°06' E 132°48'512.5
2018-Feb-21 03:39N 34°04' E 132°43'212.2
2018-Feb-21 03:30N 34°03' E 132°41'1012.2
2018-Feb-21 02:43N 33°57' E 132°32'312.0
2018-Feb-21 02:27N 33°55' E 132°29'812.5
2018-Feb-21 01:50N 33°50' E 132°22'512.0
2018-Feb-21 01:28N 33°50' E 132°17'711.7
2018-Feb-21 00:52N 33°48' E 132°09'411.6
2018-Feb-21 00:30N 33°46' E 132°04'711.1
2018-Feb-20 23:53N 33°45' E 131°56'411.0
2018-Feb-20 23:30N 33°46' E 131°51'511.0
2018-Feb-20 23:00N 33°46' E 131°45'510.8
2018-Feb-20 22:31N 33°46' E 131°38'611.0
2018-Feb-20 22:00N 33°47' E 131°32'611.1
2018-Feb-20 21:30N 33°48' E 131°25'611.3
2018-Feb-20 21:00N 33°49' E 131°18'611.4
2018-Feb-20 20:31N 33°49' E 131°12'611.7
2018-Feb-20 20:00N 33°48' E 131°04'4 7.8
2018-Feb-20 19:30N 33°48' E 130°60'0 0.0
2018-Feb-20 19:00N 33°48' E 130°60'0 0.0
2018-Feb-20 18:27N 33°48' E 130°60'0 0.0
2018-Feb-20 18:00N 33°48' E 130°60'0 0.0
2018-Feb-20 17:30N 33°48' E 130°60'1 1.8
2018-Feb-20 17:00N 33°48' E 131°01'2 3.6
2018-Feb-20 16:28N 33°48' E 131°03'0 0.0
2018-Feb-20 15:58N 33°48' E 131°03'0 0.2
2018-Feb-20 15:28N 33°48' E 131°03'0 0.1
2018-Feb-20 14:58N 33°48' E 131°03'0 0.0
2018-Feb-20 14:28N 33°48' E 131°03'0 0.0
2018-Feb-20 13:58N 33°48' E 131°03'0 0.1
2018-Feb-20 13:28N 33°48' E 131°03'0 0.1
2018-Feb-20 12:58N 33°48' E 131°03'0 0.1
2018-Feb-20 12:29N 33°48' E 131°03'4 9.0
2018-Feb-20 12:00N 33°52' E 131°03'511.0
2018-Feb-20 11:30N 33°58' E 131°02'0 0.8
2018-Feb-20 11:00N 33°58' E 131°01'0 0.0
2018-Feb-20 10:29N 33°58' E 131°01'0 0.0
2018-Feb-20 09:59N 33°58' E 131°01'0 0.0
2018-Feb-20 09:29N 33°58' E 131°01'0 0.0
2018-Feb-20 08:59N 33°58' E 131°01'0 0.0
2018-Feb-20 08:29N 33°58' E 131°01'0 0.0
2018-Feb-20 07:59N 33°58' E 131°01'0 0.0
2018-Feb-20 07:29N 33°58' E 131°01'0 0.0
2018-Feb-20 06:59N 33°58' E 131°01'0 0.0
2018-Feb-20 06:29N 33°58' E 131°01'0 0.0
2018-Feb-20 05:59N 33°58' E 131°01'0 0.0
2018-Feb-20 05:30N 33°58' E 131°01'0 0.0
2018-Feb-20 05:00N 33°58' E 131°01'0 0.0
2018-Feb-20 04:30N 33°58' E 131°01'0 0.0
2018-Feb-20 04:00N 33°58' E 131°01'0 0.0
2018-Feb-20 03:30N 33°58' E 131°01'0 0.0
2018-Feb-20 03:00N 33°58' E 131°01'0 0.0
2018-Feb-20 02:30N 33°58' E 131°01'0 0.0
2018-Feb-20 02:00N 33°58' E 131°01'1 3.0
2018-Feb-20 01:30N 33°57' E 131°03'510.8
2018-Feb-20 01:00N 33°53' E 131°08'611.2
2018-Feb-20 00:30N 33°51' E 131°14'611.4
2018-Feb-20 00:00N 33°50' E 131°21'611.3
2018-Feb-19 23:30N 33°50' E 131°27'611.3
2018-Feb-19 23:00N 33°49' E 131°34'611.4
2018-Feb-19 22:29N 33°48' E 131°41'611.2
2018-Feb-19 21:59N 33°47' E 131°48'510.8
2018-Feb-19 21:29N 33°46' E 131°54'510.6
2018-Feb-19 21:00N 33°46' E 132°00'611.3
2018-Feb-19 20:27N 33°48' E 132°08'611.3
2018-Feb-19 19:57N 33°50' E 132°14'611.4
2018-Feb-19 19:25N 33°50' E 132°21'611.5
2018-Feb-19 18:55N 33°53' E 132°27'512.4
2018-Feb-19 18:29N 33°57' E 132°32'612.1
2018-Feb-19 18:00N 34°01' E 132°37'611.3
2018-Feb-19 17:28N 34°04' E 132°43'78 9.2
2018-Feb-19 09:02N 34°24' E 134°14'110.2
2018-Feb-19 08:57N 34°24' E 134°15'510.0
2018-Feb-19 08:30N 34°25' E 134°20'510.3
2018-Feb-19 08:00N 34°27' E 134°26'510.4
2018-Feb-19 07:30N 34°29' E 134°32'510.3
2018-Feb-19 07:00N 34°31' E 134°38'510.1
2018-Feb-19 06:30N 34°33' E 134°43'510.2
2018-Feb-19 06:00N 34°34' E 134°49'5 9.6
2018-Feb-19 05:30N 34°36' E 134°55'5 9.7
2018-Feb-19 05:00N 34°38' E 135°00'5 9.8
2018-Feb-19 04:30N 34°36' E 135°06'510.8
2018-Feb-19 04:00N 34°36' E 135°12'510.7
2018-Feb-19 03:30N 34°37' E 135°19'510.2
2018-Feb-19 03:00N 34°39' E 135°24'3 5.3
2018-Feb-19 02:30N 34°40' E 135°27'0 0.1
2018-Feb-19 01:59N 34°40' E 135°27'0 0.0
2018-Feb-19 01:29N 34°40' E 135°27'0 0.0
2018-Feb-19 00:59N 34°40' E 135°27'0 0.0
2018-Feb-19 00:29N 34°40' E 135°27'0 0.0
2018-Feb-18 23:59N 34°40' E 135°27'0 0.0
2018-Feb-18 23:29N 34°40' E 135°27'0 0.0
2018-Feb-18 22:59N 34°40' E 135°27'0 0.0
2018-Feb-18 22:26N 34°40' E 135°27'0 0.0
2018-Feb-18 21:59N 34°40' E 135°27'0 0.0
2018-Feb-18 21:29N 34°40' E 135°27'0 0.0
2018-Feb-18 20:56N 34°40' E 135°27'0 0.0
2018-Feb-18 20:29N 34°40' E 135°27'0 0.0
2018-Feb-18 19:59N 34°40' E 135°27'0 0.0
2018-Feb-18 19:29N 34°40' E 135°27'0 0.0
2018-Feb-18 18:59N 34°40' E 135°27'0 0.0
2018-Feb-18 18:29N 34°40' E 135°27'0 0.0
2018-Feb-18 17:59N 34°40' E 135°27'0 0.0
2018-Feb-18 17:29N 34°40' E 135°27'0 0.0
2018-Feb-18 16:56N 34°40' E 135°27'0 0.0
2018-Feb-18 16:29N 34°40' E 135°27'0 0.0
2018-Feb-18 15:59N 34°40' E 135°27'0 0.0
2018-Feb-18 15:29N 34°40' E 135°27'0 0.0
2018-Feb-18 14:59N 34°40' E 135°27'0 0.0
2018-Feb-18 14:29N 34°40' E 135°27'0 0.0
2018-Feb-18 13:59N 34°40' E 135°27'0 0.0
2018-Feb-18 13:29N 34°40' E 135°27'0 0.0
2018-Feb-18 12:59N 34°40' E 135°27'0 0.0
2018-Feb-18 12:29N 34°40' E 135°27'0 0.0
2018-Feb-18 11:59N 34°40' E 135°27'0 0.0
2018-Feb-18 11:29N 34°40' E 135°27'0 0.0
2018-Feb-18 10:59N 34°40' E 135°27'0 0.0
2018-Feb-18 10:29N 34°40' E 135°27'0 0.0
2018-Feb-18 09:59N 34°40' E 135°27'0 0.0
2018-Feb-18 09:29N 34°40' E 135°27'0 0.0
2018-Feb-18 08:59N 34°40' E 135°27'1 2.7
2018-Feb-18 08:30N 34°39' E 135°26'510.7
2018-Feb-18 08:00N 34°36' E 135°21'611.8
2018-Feb-18 07:30N 34°35' E 135°13'612.1
2018-Feb-18 07:00N 34°35' E 135°06'714.0
2018-Feb-18 06:30N 34°37' E 134°58'713.8
2018-Feb-18 06:00N 34°34' E 134°51'611.9
2018-Feb-18 05:30N 34°31' E 134°44'611.9
2018-Feb-18 05:00N 34°29' E 134°37'611.5
2018-Feb-18 04:30N 34°26' E 134°31'611.1
2018-Feb-18 04:00N 34°25' E 134°25'  
2018-Feb-15 19:38N 34°05' E 132°47'3 9.5
2018-Feb-15 19:17N 34°04' E 132°44'3 9.7
2018-Feb-15 19:00N 34°02' E 132°41'5 9.5
2018-Feb-15 18:30N 34°00' E 132°36'4 7.7
2018-Feb-15 17:56N 33°57' E 132°33'3 8.0
2018-Feb-15 17:30N 33°55' E 132°29'5 8.7
2018-Feb-15 16:55N 33°51' E 132°25'6 8.6
2018-Feb-15 16:16N 33°50' E 132°18'4 9.6
2018-Feb-15 15:53N 33°50' E 132°14'4 9.2
2018-Feb-15 15:29N 33°48' E 132°10'5 9.6
2018-Feb-15 15:00N 33°46' E 132°05'610.3
2018-Feb-15 14:27N 33°45' E 131°58'510.8
2018-Feb-15 14:00N 33°46' E 131°52'611.0
2018-Feb-15 13:30N 33°47' E 131°46'511.0
2018-Feb-15 13:00N 33°48' E 131°39'510.7
2018-Feb-15 12:30N 33°49' E 131°33'510.6
2018-Feb-15 12:00N 33°50' E 131°27'510.4
2018-Feb-15 11:30N 33°49' E 131°20'510.2
2018-Feb-15 11:00N 33°49' E 131°14'510.1
2018-Feb-15 10:30N 33°48' E 131°08'5 9.8
2018-Feb-15 10:01N 33°48' E 131°02'2 4.0
2018-Feb-15 09:28N 33°48' E 130°60'0 0.0
2018-Feb-15 08:58N 33°48' E 130°60'0 0.0
2018-Feb-15 08:28N 33°48' E 130°60'0 0.0
2018-Feb-15 07:55N 33°48' E 130°60'0 0.0
2018-Feb-15 07:28N 33°48' E 130°60'0 0.0
2018-Feb-15 07:01N 33°48' E 130°60'2 4.8
2018-Feb-15 06:31N 33°48' E 131°03'0 0.6
2018-Feb-15 05:59N 33°48' E 131°03'0 0.0
2018-Feb-15 05:29N 33°48' E 131°03'0 0.0
2018-Feb-15 04:59N 33°48' E 131°03'0 0.0
2018-Feb-15 04:29N 33°48' E 131°03'0 0.0
2018-Feb-15 03:59N 33°48' E 131°03'0 0.0
2018-Feb-15 03:29N 33°48' E 131°03'0 0.0
2018-Feb-15 02:58N 33°48' E 131°03'0 0.1
2018-Feb-15 02:28N 33°48' E 131°03'0 0.1
2018-Feb-15 01:55N 33°48' E 131°03'0 0.1
2018-Feb-15 01:28N 33°48' E 131°03'0 0.0
2018-Feb-15 00:58N 33°48' E 131°03'0 0.0
2018-Feb-15 00:28N 33°48' E 131°03'0 0.1
2018-Feb-14 23:58N 33°48' E 131°03'0 0.0
2018-Feb-14 23:28N 33°48' E 131°03'0 0.0
2018-Feb-14 22:58N 33°48' E 131°03'0 0.0
2018-Feb-14 22:28N 33°48' E 131°03'0 0.1
2018-Feb-14 21:58N 33°48' E 131°03'0 0.0
2018-Feb-14 21:28N 33°48' E 131°03'0 0.1
2018-Feb-14 20:58N 33°48' E 131°03'0 0.0
2018-Feb-14 20:28N 33°48' E 131°03'0 0.0
2018-Feb-14 19:58N 33°48' E 131°03'0 0.0
2018-Feb-14 19:28N 33°48' E 131°03'0 0.0
2018-Feb-14 18:58N 33°48' E 131°03'0 0.1
2018-Feb-14 18:28N 33°48' E 131°03'0 0.0
2018-Feb-14 17:58N 33°48' E 131°03'0 0.0
2018-Feb-14 17:28N 33°48' E 131°03'0 0.0
2018-Feb-14 16:58N 33°48' E 131°03'3 5.7
2018-Feb-14 16:30N 33°51' E 131°04'611.7
2018-Feb-14 16:00N 33°56' E 131°02'2 3.2
2018-Feb-14 15:30N 33°58' E 131°01'0 0.0
2018-Feb-14 15:00N 33°58' E 131°01'0 0.0
2018-Feb-14 14:30N 33°58' E 131°01'0 0.0
2018-Feb-14 14:00N 33°58' E 131°01'0 0.0
2018-Feb-14 13:30N 33°58' E 131°01'0 0.0
2018-Feb-14 13:00N 33°58' E 131°01'0 0.0
2018-Feb-14 12:30N 33°58' E 131°01'0 0.0
2018-Feb-14 12:00N 33°58' E 131°01'0 0.0
2018-Feb-14 11:24N 33°58' E 131°01'0 0.0
2018-Feb-14 11:00N 33°58' E 131°01'0 0.0
2018-Feb-14 10:30N 33°58' E 131°01'0 0.4
2018-Feb-14 10:00N 33°58' E 131°01'4 7.8
2018-Feb-14 09:30N 33°55' E 131°05'510.6
2018-Feb-14 09:00N 33°52' E 131°10'510.9
2018-Feb-14 08:30N 33°51' E 131°17'611.4
2018-Feb-14 08:00N 33°50' E 131°23'611.2
2018-Feb-14 07:30N 33°49' E 131°30'611.0
2018-Feb-14 07:00N 33°49' E 131°37'510.8
2018-Feb-14 06:30N 33°48' E 131°43'510.7
2018-Feb-14 06:00N 33°47' E 131°49'510.4
2018-Feb-14 05:29N 33°46' E 131°56'510.6
2018-Feb-14 05:00N 33°46' E 132°02'711.1
2018-Feb-14 04:20N 33°49' E 132°10'411.0
2018-Feb-14 03:58N 33°50' E 132°14'511.1
2018-Feb-14 03:30N 33°50' E 132°21'611.1
2018-Feb-14 02:59N 33°53' E 132°27'611.5
2018-Feb-14 02:30N 33°57' E 132°32'610.8
2018-Feb-14 02:00N 34°00' E 132°37'510.7
2018-Feb-14 01:30N 34°03' E 132°42'71 9.3
2018-Feb-13 17:51N 34°27' E 134°04'15 9.3
2018-Feb-13 16:14N 34°25' E 134°22'310.3
2018-Feb-13 15:59N 34°27' E 134°24'510.5
2018-Feb-13 15:30N 34°28' E 134°30'510.3
2018-Feb-13 15:01N 34°30' E 134°36'5 9.8
2018-Feb-13 14:30N 34°32' E 134°41'5 9.7
2018-Feb-13 14:01N 34°34' E 134°47'5 9.9
2018-Feb-13 13:30N 34°35' E 134°53'510.1
2018-Feb-13 13:00N 34°37' E 134°58'5 9.8
2018-Feb-13 12:30N 34°36' E 135°04'510.1
2018-Feb-13 12:00N 34°36' E 135°10'510.5
2018-Feb-13 11:30N 34°36' E 135°17'510.3
2018-Feb-13 11:01N 34°38' E 135°22'5 8.5
2018-Feb-13 10:29N 34°40' E 135°27'0 0.2
2018-Feb-13 09:59N 34°40' E 135°27'0 0.0
2018-Feb-13 09:29N 34°40' E 135°27'0 0.0
2018-Feb-13 08:59N 34°40' E 135°27'0 0.0
2018-Feb-13 08:29N 34°40' E 135°27'0 0.1
2018-Feb-13 07:59N 34°40' E 135°27'0 0.2
2018-Feb-13 07:26N 34°40' E 135°27'0 0.0
2018-Feb-13 06:56N 34°40' E 135°27'0 0.0
2018-Feb-13 06:29N 34°40' E 135°27'0 0.0
2018-Feb-13 05:58N 34°40' E 135°27'0 0.0
2018-Feb-13 05:30N 34°40' E 135°27'2 4.8
2018-Feb-13 05:00N 34°39' E 135°25'611.4
2018-Feb-13 04:30N 34°36' E 135°19'612.0
2018-Feb-13 04:00N 34°35' E 135°12'612.1
2018-Feb-13 03:30N 34°35' E 135°04'612.8
2018-Feb-13 03:00N 34°36' E 134°57'612.5
2018-Feb-13 02:30N 34°34' E 134°50'611.4
2018-Feb-13 02:00N 34°32' E 134°43'612.0
2018-Feb-13 01:30N 34°32' E 134°36'612.0
2018-Feb-13 01:00N 34°32' E 134°29'5 6.9
2018-Feb-13 00:14N 34°31' E 134°22'0 0.1
2018-Feb-12 23:59N 34°31' E 134°22'0 0.0
2018-Feb-12 23:23N 34°31' E 134°22'0 0.1
2018-Feb-12 22:53N 34°31' E 134°22'0 0.2
2018-Feb-12 22:29N 34°31' E 134°22'0 0.0
2018-Feb-12 21:53N 34°31' E 134°22'0 0.2
2018-Feb-12 21:23N 34°31' E 134°22'0 0.0
2018-Feb-12 20:08N 34°31' E 134°22'0 0.4
2018-Feb-12 19:59N 34°31' E 134°22'0 0.1
2018-Feb-12 19:17N 34°31' E 134°22'0 0.0
2018-Feb-12 18:40N 34°31' E 134°22'0 0.0
2018-Feb-12 17:07N 34°31' E 134°22'0 0.0
2018-Feb-12 16:58N 34°31' E 134°22'0 0.0
2018-Feb-12 16:28N 34°31' E 134°22'0 0.1
2018-Feb-12 15:58N 34°31' E 134°22'0 0.0
2018-Feb-12 14:58N 34°31' E 134°22'0 0.0
2018-Feb-12 13:52N 34°31' E 134°22'0 0.0
2018-Feb-12 13:10N 34°31' E 134°22'0 0.1
2018-Feb-12 12:52N 34°31' E 134°22'0 0.0
2018-Feb-12 12:28N 34°31' E 134°22'0 0.0
2018-Feb-12 11:58N 34°31' E 134°22'0 0.1
2018-Feb-12 11:16N 34°31' E 134°22'0 0.1
2018-Feb-12 10:52N 34°31' E 134°22'0 0.0
2018-Feb-12 10:22N 34°31' E 134°22'0 0.1
2018-Feb-12 09:58N 34°31' E 134°22'0 0.1
2018-Feb-12 09:16N 34°31' E 134°22'0 0.1
2018-Feb-12 08:43N 34°31' E 134°22'0 0.0
2018-Feb-12 07:52N 34°31' E 134°22'0 0.0
2018-Feb-12 07:13N 34°31' E 134°22'0 0.0
2018-Feb-12 06:55N 34°31' E 134°22'0 0.0
2018-Feb-12 05:28N 34°31' E 134°22'0 0.1
2018-Feb-12 04:49N 34°31' E 134°22'0 0.0
2018-Feb-12 04:28N 34°31' E 134°22'0 0.0
2018-Feb-12 03:58N 34°31' E 134°22'0 0.0
2018-Feb-12 03:07N 34°31' E 134°22'0 0.3
2018-Feb-12 02:58N 34°31' E 134°22'0 0.1
2018-Feb-12 02:25N 34°31' E 134°22'0 0.1
2018-Feb-12 01:52N 34°31' E 134°22'0 0.1
2018-Feb-12 01:25N 34°31' E 134°22'0 0.2
2018-Feb-12 00:58N 34°31' E 134°22'0 0.0
2018-Feb-12 00:04N 34°31' E 134°22'0 0.2
2018-Feb-11 23:52N 34°31' E 134°22'0 0.1
2018-Feb-11 23:22N 34°31' E 134°22'0 0.0
2018-Feb-11 22:58N 34°31' E 134°22'0 0.0
2018-Feb-11 22:13N 34°31' E 134°22'0 0.1
2018-Feb-11 21:55N 34°31' E 134°22'0 0.0
2018-Feb-11 21:25N 34°31' E 134°22'0 0.1
2018-Feb-11 20:58N 34°31' E 134°22'0 0.0
2018-Feb-11 20:28N 34°31' E 134°22'0 0.1
2018-Feb-11 19:58N 34°31' E 134°22'0 0.1
2018-Feb-11 19:28N 34°31' E 134°22'  

Dump ship's entire track history